world map with BRU marked

BRU - Airport

This information may not be accurate or current and is not valid for navigation or flight planning. No warranty of fitness for any purpose is made or implied.

flag of Vlaams-Brabant (Flemish Brabant)flag of Belgium

Donate via PayPal

Additional information is available on the NEW Great Circle Mapper

Location
City:  Brussels, Vlaams-Brabant (Flemish Brabant), Belgium
Near (Alt.):Zaventem
Name:Brussels Airport (Brussels National Airport)
ICAO / IATA:EBBR / BRU

Details
Type:Airport (Aerodrome, Airfield)
Use:Public/Civil, Military
Latitude:50°54'05"N (50.901389)
Longitude:4°29'04"E (4.484444)
Datum:WGS 1984
Elevation:184 ft (56 m)
Runways:3
Longest:11936 × 148 ft (3638 × 45 m)

Time
Timezone:UTC+1 (DST+4)
Local Time:

Weather
METAR:EBBR  300620Z 19009KT CAVOK 12/07 Q1025 NOSIG
TAF:EBBR  300501Z 3006/3112 20008KT CAVOK= TAF EDDF 300500Z 3006/3112 20005KT CAVOK BECMG 3016/3018 07004KT BECMG 3106/3108 21006KT

Related Locations
Nearby:
Farthest:CHT: 11938 mi / 19212 km
Waitangi [Tuuta], CIT, NZ

Find:

   beyond  
but within

Other Information
Maps:
Links:
Sources:

  

Airport Diagram

Airport diagram for BRU

Airport diagram (OBSOLETE) from NGA

 


Great Circle Mapper   Great Circle Mapper
Great Circle Mapper FAQ   Great Circle Mapper FAQ
  Karl's Home Page
KLSē   KLSē Home
   GC on Facebook
Airlines of the World   Airlines of the World
Donate via PayPal


Copyright © 2004-2017, Karl L. Swartz. All rights reserved.
All trademarks mentioned herein belong to their respective owners.

Please see credits for attribution and copyright information.

Karl Swartz <karl@kls2.com>
  Powered by FreeBSD
Valid HTML 4.01!
Labeled with ICRA
hCard Microformat
Geo Microformat